createdAt,value
2023-03-26T00:01:19.195Z,0.80
2023-03-26T00:03:46.977Z,1.00
2023-03-26T00:06:16.554Z,0.70
2023-03-26T00:08:44.964Z,1.00
2023-03-26T00:11:13.915Z,1.00
2023-03-26T00:13:43.576Z,1.17
2023-03-26T00:16:12.082Z,1.10
2023-03-26T00:18:40.308Z,0.88
2023-03-26T00:21:07.949Z,0.70
2023-03-26T00:23:35.573Z,1.08
2023-03-26T00:26:03.621Z,0.55
2023-03-26T00:28:30.682Z,0.75
2023-03-26T00:31:00.106Z,0.90
2023-03-26T00:33:27.831Z,0.70
2023-03-26T00:35:56.666Z,0.90
2023-03-26T00:38:25.571Z,1.00
2023-03-26T00:40:52.489Z,1.08
2023-03-26T00:43:20.441Z,0.77
2023-03-26T00:45:47.422Z,1.05
2023-03-26T00:48:16.339Z,1.17
2023-03-26T00:50:44.448Z,0.90
2023-03-26T00:53:12.107Z,0.70
2023-03-26T00:55:39.150Z,1.55
2023-03-26T00:58:05.975Z,1.00
2023-03-26T01:00:35.268Z,0.70
2023-03-26T01:03:04.303Z,1.10
2023-03-26T01:05:53.139Z,0.98
2023-03-26T01:08:38.936Z,0.80
2023-03-26T01:11:31.898Z,1.00
2023-03-26T01:16:39.143Z,0.88
2023-03-26T01:19:29.573Z,0.85
2023-03-26T01:21:57.763Z,0.95
2023-03-26T01:24:24.525Z,0.75
2023-03-26T01:27:01.874Z,0.70
2023-03-26T01:29:55.617Z,0.75
2023-03-26T01:32:24.911Z,0.88
2023-03-26T01:35:07.787Z,1.00
2023-03-26T01:40:17.840Z,0.82
2023-03-26T01:42:52.030Z,0.70
2023-03-26T01:45:23.468Z,0.70
2023-03-26T01:47:50.908Z,0.90
2023-03-26T01:50:17.660Z,0.70
2023-03-26T01:52:44.665Z,0.82
2023-03-26T01:55:12.640Z,0.75
2023-03-26T01:57:56.996Z,0.80
2023-03-26T02:00:33.693Z,0.52
2023-03-26T02:03:19.467Z,1.55
2023-03-26T02:05:56.534Z,0.98
2023-03-26T02:08:35.859Z,1.02
2023-03-26T02:11:11.754Z,0.70
2023-03-26T02:13:44.446Z,1.13
2023-03-26T02:18:41.156Z,0.77
2023-03-26T02:21:20.299Z,0.70
2023-03-26T02:23:57.687Z,1.02
2023-03-26T02:26:25.922Z,0.85
2023-03-26T02:28:58.771Z,0.90
2023-03-26T02:31:26.458Z,0.98
2023-03-26T02:33:55.427Z,0.80
2023-03-26T02:36:30.195Z,0.90
2023-03-26T02:39:00.484Z,0.85
2023-03-26T02:41:29.681Z,1.00
2023-03-26T02:44:05.273Z,0.80
2023-03-26T02:46:54.520Z,0.95
2023-03-26T02:49:41.599Z,0.77
2023-03-26T02:52:09.039Z,1.02
2023-03-26T02:54:36.914Z,0.93
2023-03-26T02:57:16.200Z,0.80
2023-03-26T03:00:04.564Z,0.80
2023-03-26T03:02:40.579Z,0.90
2023-03-26T03:05:28.746Z,0.63
2023-03-26T03:08:10.284Z,0.73
2023-03-26T03:10:42.394Z,1.30
2023-03-26T03:13:16.021Z,0.65
2023-03-26T03:15:42.747Z,0.68
2023-03-26T03:18:09.432Z,0.90
2023-03-26T03:20:36.119Z,0.52
2023-03-26T03:23:02.900Z,0.82
2023-03-26T03:25:30.586Z,0.73
2023-03-26T03:27:57.269Z,0.85
2023-03-26T03:30:24.460Z,1.45
2023-03-26T03:33:09.022Z,0.80
2023-03-26T03:35:37.760Z,1.15
2023-03-26T03:38:04.543Z,0.90
2023-03-26T03:40:39.896Z,1.27
2023-03-26T03:43:07.356Z,0.90
2023-03-26T03:45:42.719Z,0.80
2023-03-26T03:48:22.354Z,0.90
2023-03-26T03:50:49.055Z,0.75
2023-03-26T03:53:26.152Z,1.35
2023-03-26T03:55:56.448Z,1.38
2023-03-26T03:58:28.346Z,1.08
2023-03-26T04:01:00.790Z,1.97
2023-03-26T04:03:54.571Z,1.40
2023-03-26T04:06:25.141Z,1.00
2023-03-26T04:08:53.570Z,1.20
2023-03-26T04:11:20.775Z,0.93
2023-03-26T04:14:10.346Z,0.80
2023-03-26T04:16:50.824Z,1.33
2023-03-26T04:19:17.726Z,1.50
2023-03-26T04:21:44.456Z,1.92
2023-03-26T04:24:11.177Z,1.23
2023-03-26T04:27:09.456Z,1.30
2023-03-26T04:29:45.490Z,1.63
2023-03-26T04:32:29.825Z,1.05
2023-03-26T04:35:00.588Z,1.20
2023-03-26T04:37:34.326Z,1.30
2023-03-26T04:40:13.347Z,1.42
2023-03-26T04:42:59.885Z,1.45
2023-03-26T04:46:02.812Z,1.67
2023-03-26T04:48:31.534Z,1.35
2023-03-26T04:50:58.573Z,1.85
2023-03-26T04:53:25.632Z,1.73
2023-03-26T04:56:14.251Z,2.40
2023-03-26T04:59:00.290Z,2.17
2023-03-26T05:01:29.319Z,2.00
2023-03-26T05:03:59.269Z,1.85
2023-03-26T05:06:28.794Z,2.22
2023-03-26T05:08:55.546Z,2.00
2023-03-26T05:11:42.356Z,1.42
2023-03-26T05:14:09.206Z,2.00
2023-03-26T05:16:37.180Z,1.90
2023-03-26T05:19:08.841Z,1.75
2023-03-26T05:21:36.208Z,1.60
2023-03-26T05:24:03.366Z,1.90
2023-03-26T05:26:30.069Z,2.45
2023-03-26T05:28:57.492Z,3.40
2023-03-26T05:31:32.716Z,5.15
2023-03-26T05:34:00.623Z,3.47
2023-03-26T05:36:30.399Z,2.53
2023-03-26T05:39:17.328Z,1.77
2023-03-26T05:42:04.158Z,1.30
2023-03-26T05:44:43.263Z,14.43
2023-03-26T05:47:18.291Z,10.15
2023-03-26T05:49:46.128Z,7.47
2023-03-26T05:52:16.094Z,31.90
2023-03-26T05:55:01.588Z,18.17
2023-03-26T05:57:47.119Z,7.80
2023-03-26T06:00:38.874Z,4.25
2023-03-26T06:03:12.973Z,3.58
2023-03-26T06:06:03.856Z,2.97
2023-03-26T06:08:48.811Z,2.40
2023-03-26T06:11:30.240Z,2.20
2023-03-26T06:13:57.164Z,1.67
2023-03-26T06:16:25.997Z,1.65
2023-03-26T06:18:57.856Z,1.77
2023-03-26T06:21:38.371Z,1.80
2023-03-26T06:24:19.771Z,1.77
2023-03-26T06:27:02.201Z,1.63
2023-03-26T06:29:48.003Z,1.38
2023-03-26T06:35:11.423Z,1.83
2023-03-26T06:37:38.223Z,1.33
2023-03-26T06:40:05.948Z,1.20
2023-03-26T06:43:07.934Z,1.17
2023-03-26T06:45:52.823Z,1.00
2023-03-26T06:48:37.879Z,1.20
2023-03-26T06:51:30.869Z,0.80
2023-03-26T06:54:18.653Z,1.58
2023-03-26T06:56:54.085Z,1.08
2023-03-26T06:59:35.105Z,1.60
2023-03-26T07:05:14.146Z,1.13
2023-03-26T07:07:59.487Z,1.40
2023-03-26T07:10:58.448Z,2.25
2023-03-26T07:13:44.908Z,2.55
2023-03-26T07:16:30.399Z,2.53
2023-03-26T07:19:10.840Z,2.85
2023-03-26T07:21:39.925Z,2.67
2023-03-26T07:24:21.907Z,2.45
2023-03-26T07:27:24.035Z,2.50
2023-03-26T07:29:59.246Z,2.50
2023-03-26T07:32:46.263Z,2.35
2023-03-26T07:36:07.917Z,3.35
2023-03-26T07:39:09.558Z,2.60
2023-03-26T07:42:10.187Z,2.75
2023-03-26T07:45:21.561Z,3.50
2023-03-26T07:48:02.234Z,3.75
2023-03-26T07:51:04.517Z,3.83
2023-03-26T07:53:49.579Z,1.95
2023-03-26T07:56:48.760Z,1.60
2023-03-26T07:59:43.665Z,2.10
2023-03-26T08:03:01.282Z,2.35
2023-03-26T08:05:52.368Z,1.77
2023-03-26T08:08:52.447Z,4.63
2023-03-26T08:11:55.678Z,2.90
2023-03-26T08:15:00.535Z,3.67
2023-03-26T08:17:35.376Z,6.70
2023-03-26T08:20:11.846Z,5.03
2023-03-26T08:22:42.731Z,4.32
2023-03-26T08:25:47.126Z,3.50
2023-03-26T08:28:35.387Z,1.90
2023-03-26T08:31:03.014Z,2.38
2023-03-26T08:33:31.023Z,2.20
2023-03-26T08:35:57.807Z,1.60
2023-03-26T08:38:24.497Z,1.52
2023-03-26T08:41:14.727Z,1.17
2023-03-26T08:44:18.419Z,2.10
2023-03-26T08:47:22.063Z,1.80
2023-03-26T08:50:20.339Z,1.35
2023-03-26T08:53:00.779Z,3.10
2023-03-26T08:56:08.537Z,1.20
2023-03-26T08:59:03.201Z,1.15
2023-03-26T09:01:58.636Z,2.58
2023-03-26T09:04:43.956Z,1.33
2023-03-26T09:07:34.916Z,2.10
2023-03-26T09:10:46.631Z,1.25
2023-03-26T09:13:56.726Z,1.00
2023-03-26T09:16:49.528Z,1.33
2023-03-26T09:19:54.135Z,1.20
2023-03-26T09:23:01.064Z,0.98
2023-03-26T09:26:02.896Z,0.93
2023-03-26T09:28:59.292Z,0.85
2023-03-26T09:32:02.386Z,1.20
2023-03-26T09:37:21.893Z,1.10
2023-03-26T09:40:22.469Z,1.20
2023-03-26T09:43:29.749Z,1.27
2023-03-26T09:46:15.168Z,1.73
2023-03-26T09:48:53.864Z,2.95
2023-03-26T09:51:33.177Z,2.22
2023-03-26T09:54:26.339Z,2.50
2023-03-26T09:57:16.248Z,2.47
2023-03-26T09:59:58.158Z,2.83
2023-03-26T10:02:47.613Z,3.77
2023-03-26T10:05:43.051Z,2.92
2023-03-26T10:08:29.315Z,3.13
2023-03-26T10:11:10.771Z,1.20
2023-03-26T10:13:43.279Z,2.03
2023-03-26T10:19:19.838Z,1.98
2023-03-26T10:22:27.477Z,2.40
2023-03-26T10:25:00.417Z,2.40
2023-03-26T10:27:42.084Z,2.20
2023-03-26T10:30:23.836Z,1.10
2023-03-26T10:32:57.728Z,3.00
2023-03-26T10:35:45.616Z,2.10
2023-03-26T10:38:56.379Z,2.30
2023-03-26T10:41:49.191Z,2.20
2023-03-26T10:44:28.719Z,1.63
2023-03-26T10:47:19.876Z,1.63
2023-03-26T10:50:17.249Z,1.17
2023-03-26T10:53:04.579Z,0.88
2023-03-26T10:55:37.782Z,1.00
2023-03-26T10:58:14.367Z,0.50
2023-03-26T11:00:54.695Z,0.50
2023-03-26T11:03:41.671Z,0.40
2023-03-26T11:06:17.246Z,0.52
2023-03-26T11:08:50.257Z,0.40
2023-03-26T11:11:30.276Z,0.52
2023-03-26T11:14:33.836Z,0.50
2023-03-26T11:17:40.608Z,0.40
2023-03-26T11:20:37.447Z,0.50
2023-03-26T11:23:26.029Z,0.50
2023-03-26T11:26:18.002Z,0.50
2023-03-26T11:29:04.009Z,0.40
2023-03-26T11:31:51.482Z,0.50
2023-03-26T11:34:41.406Z,0.50
2023-03-26T11:37:26.660Z,0.52
2023-03-26T11:39:56.682Z,0.88
2023-03-26T11:42:24.754Z,1.38
2023-03-26T11:44:54.300Z,0.70
2023-03-26T11:47:26.582Z,0.90
2023-03-26T11:49:57.528Z,0.60
2023-03-26T11:52:26.614Z,0.70
2023-03-26T11:54:54.087Z,0.80
2023-03-26T11:57:29.148Z,0.70
2023-03-26T12:00:11.635Z,1.63
2023-03-26T12:02:41.703Z,0.65
2023-03-26T12:05:26.278Z,0.82
2023-03-26T12:07:57.295Z,0.80
2023-03-26T12:10:44.443Z,0.80
2023-03-26T12:13:38.290Z,0.60
2023-03-26T12:18:49.594Z,1.20
2023-03-26T12:21:19.275Z,0.80
2023-03-26T12:24:26.386Z,0.80
2023-03-26T12:27:20.231Z,0.40
2023-03-26T12:29:59.993Z,0.47
2023-03-26T12:32:45.146Z,0.60
2023-03-26T12:35:19.583Z,0.55
2023-03-26T12:37:47.086Z,2.22
2023-03-26T12:40:35.891Z,0.65
2023-03-26T12:44:48.306Z,0.52
2023-03-26T12:47:26.480Z,0.40
2023-03-26T12:48:45.360Z,0.30
2023-03-26T12:51:20.181Z,0.65
2023-03-26T12:53:53.693Z,0.40
2023-03-26T12:56:36.645Z,0.55
2023-03-26T12:59:30.914Z,0.60
2023-03-26T13:02:20.215Z,0.32
2023-03-26T13:05:08.824Z,0.45
2023-03-26T13:08:20.944Z,0.50
2023-03-26T13:11:13.083Z,1.00
2023-03-26T13:14:00.263Z,0.80
2023-03-26T13:17:05.824Z,1.50
2023-03-26T13:20:06.795Z,0.90
2023-03-26T13:23:08.905Z,2.28
2023-03-26T13:25:59.895Z,0.50
2023-03-26T13:28:29.423Z,0.45
2023-03-26T13:31:18.997Z,0.70
2023-03-26T13:34:07.732Z,0.50
2023-03-26T13:37:10.857Z,0.52
2023-03-26T13:42:41.312Z,0.70
2023-03-26T13:45:29.885Z,0.85
2023-03-26T13:47:58.929Z,0.70
2023-03-26T13:50:32.666Z,1.20
2023-03-26T13:53:02.619Z,0.75
2023-03-26T13:55:40.974Z,0.60
2023-03-26T13:58:14.421Z,0.80
2023-03-26T14:01:17.752Z,0.60
2023-03-26T14:04:10.684Z,0.40
2023-03-26T14:09:29.187Z,0.60
2023-03-26T14:12:21.049Z,0.45
2023-03-26T14:15:11.975Z,0.50
2023-03-26T14:17:47.375Z,0.50
2023-03-26T14:20:32.574Z,0.70
2023-03-26T14:23:25.619Z,0.55
2023-03-26T14:26:21.964Z,0.40
2023-03-26T14:28:57.392Z,0.50
2023-03-26T14:31:45.177Z,0.40
2023-03-26T14:34:34.240Z,0.60
2023-03-26T14:37:27.417Z,0.85
2023-03-26T14:40:14.605Z,0.70
2023-03-26T14:42:55.222Z,0.60
2023-03-26T14:45:34.892Z,0.70
2023-03-26T14:48:19.586Z,0.60
2023-03-26T14:51:12.430Z,1.00
2023-03-26T14:53:43.777Z,0.50
2023-03-26T14:56:41.532Z,0.73
2023-03-26T14:59:26.835Z,0.80
2023-03-26T15:02:18.775Z,0.80
2023-03-26T15:04:51.453Z,0.40
2023-03-26T15:07:30.198Z,0.60
2023-03-26T15:10:34.511Z,0.38
2023-03-26T15:13:13.174Z,0.50
2023-03-26T15:16:09.734Z,0.40
2023-03-26T15:18:58.403Z,0.35
2023-03-26T15:21:59.421Z,0.22
2023-03-26T15:25:04.096Z,0.55
2023-03-26T15:27:46.097Z,0.30
2023-03-26T15:30:18.566Z,0.60
2023-03-26T15:35:45.658Z,0.30
2023-03-26T15:38:38.445Z,0.30
2023-03-26T15:41:21.745Z,0.38
2023-03-26T15:44:24.059Z,0.30
2023-03-26T15:46:59.228Z,0.30
2023-03-26T15:49:48.015Z,0.30
2023-03-26T15:52:48.831Z,0.40
2023-03-26T15:55:26.260Z,0.40
2023-03-26T15:58:14.341Z,0.40
2023-03-26T16:00:57.187Z,0.35
2023-03-26T16:03:39.523Z,2.80
2023-03-26T16:06:41.288Z,0.50
2023-03-26T16:09:32.908Z,1.70
2023-03-26T16:12:11.911Z,0.45
2023-03-26T16:14:46.783Z,4.68
2023-03-26T16:17:23.438Z,1.50
2023-03-26T16:20:32.530Z,0.50
2023-03-26T16:23:03.541Z,0.30
2023-03-26T16:25:31.953Z,0.50
2023-03-26T16:28:46.678Z,0.30
2023-03-26T16:31:23.511Z,0.40
2023-03-26T16:34:08.002Z,0.75
2023-03-26T16:36:42.035Z,0.60
2023-03-26T16:39:10.346Z,0.20
2023-03-26T16:41:39.748Z,0.30
2023-03-26T16:44:33.937Z,0.20
2023-03-26T16:47:17.166Z,0.20
2023-03-26T16:50:08.333Z,0.25
2023-03-26T16:52:54.188Z,0.20
2023-03-26T16:55:26.618Z,0.20
2023-03-26T17:00:59.784Z,0.20
2023-03-26T17:03:54.946Z,0.10
2023-03-26T17:06:53.332Z,0.20
2023-03-26T17:09:38.980Z,0.30
2023-03-26T17:12:33.566Z,0.30
2023-03-26T17:15:45.290Z,0.20
2023-03-26T17:18:28.379Z,0.30
2023-03-26T17:21:16.255Z,0.30
2023-03-26T17:24:20.790Z,0.40
2023-03-26T17:27:26.346Z,0.30
2023-03-26T17:30:22.626Z,0.50
2023-03-26T17:32:57.833Z,0.30
2023-03-26T17:35:44.652Z,0.90
2023-03-26T17:38:17.229Z,1.35
2023-03-26T17:40:47.769Z,2.22
2023-03-26T17:43:37.773Z,1.33
2023-03-26T17:46:25.712Z,0.60
2023-03-26T17:49:24.464Z,0.70
2023-03-26T17:52:16.854Z,0.85
2023-03-26T17:54:50.174Z,0.70
2023-03-26T17:57:27.982Z,1.17
2023-03-26T17:59:59.499Z,0.98
2023-03-26T18:02:38.018Z,0.40
2023-03-26T18:05:08.170Z,0.55
2023-03-26T18:07:46.736Z,0.63
2023-03-26T18:10:53.641Z,0.60
2023-03-26T18:13:40.471Z,0.57
2023-03-26T18:16:16.015Z,0.52
2023-03-26T18:18:51.659Z,0.50
2023-03-26T18:21:33.011Z,0.60
2023-03-26T18:24:01.069Z,0.50
2023-03-26T18:26:40.466Z,0.40
2023-03-26T18:29:31.378Z,0.60
2023-03-26T18:32:09.320Z,0.60
2023-03-26T18:34:41.159Z,0.40
2023-03-26T18:37:08.459Z,0.30
2023-03-26T18:39:35.276Z,0.30
2023-03-26T18:42:01.994Z,0.30
2023-03-26T18:44:28.716Z,0.30
2023-03-26T18:46:55.443Z,0.20
2023-03-26T18:49:23.870Z,0.20
2023-03-26T18:51:57.329Z,0.50
2023-03-26T18:54:28.159Z,0.50
2023-03-26T18:56:55.036Z,0.20
2023-03-26T18:59:35.049Z,0.32
2023-03-26T19:02:11.394Z,0.40
2023-03-26T19:04:38.697Z,0.40
2023-03-26T19:07:14.466Z,0.30
2023-03-26T19:09:43.166Z,0.45
2023-03-26T19:12:22.965Z,0.40
2023-03-26T19:15:04.818Z,0.20
2023-03-26T19:17:38.538Z,0.30
2023-03-26T19:20:09.774Z,0.20
2023-03-26T19:22:36.861Z,0.30
2023-03-26T19:25:05.222Z,0.20
2023-03-26T19:27:32.065Z,0.28
2023-03-26T19:29:58.861Z,0.20
2023-03-26T19:32:32.412Z,0.73
2023-03-26T19:35:00.603Z,0.40
2023-03-26T19:37:32.464Z,0.40
2023-03-26T19:40:14.398Z,0.30
2023-03-26T19:42:44.818Z,0.20
2023-03-26T19:45:19.791Z,0.28
2023-03-26T19:48:00.016Z,0.30
2023-03-26T19:50:36.448Z,0.43
2023-03-26T19:53:22.438Z,0.30
2023-03-26T19:56:05.239Z,0.40
2023-03-26T19:58:35.216Z,0.25
2023-03-26T20:01:03.187Z,0.30
2023-03-26T20:03:44.207Z,0.30
2023-03-26T20:06:16.600Z,0.55
2023-03-26T20:08:43.744Z,0.30
2023-03-26T20:11:22.702Z,0.30
2023-03-26T20:13:50.206Z,0.50
2023-03-26T20:16:29.123Z,0.28
2023-03-26T20:18:58.346Z,1.40
2023-03-26T20:21:26.359Z,0.40
2023-03-26T20:23:55.828Z,0.30
2023-03-26T20:26:27.115Z,0.40
2023-03-26T20:28:57.162Z,0.80
2023-03-26T20:31:26.661Z,0.50
2023-03-26T20:33:54.393Z,0.90
2023-03-26T20:36:33.820Z,0.40
2023-03-26T20:39:01.205Z,0.35
2023-03-26T20:41:28.940Z,0.28
2023-03-26T20:43:55.675Z,0.60
2023-03-26T20:46:31.651Z,0.30
2023-03-26T20:48:59.742Z,0.40
2023-03-26T20:51:28.239Z,0.20
2023-03-26T20:53:56.076Z,0.20
2023-03-26T20:56:23.311Z,0.30
2023-03-26T20:59:03.706Z,0.40
2023-03-26T21:01:37.847Z,0.50
2023-03-26T21:04:04.700Z,0.30
2023-03-26T21:06:31.645Z,0.35
2023-03-26T21:08:58.932Z,0.40
2023-03-26T21:11:32.798Z,0.55
2023-03-26T21:14:01.878Z,0.40
2023-03-26T21:16:28.919Z,0.28
2023-03-26T21:18:56.658Z,0.22
2023-03-26T21:21:46.079Z,0.20
2023-03-26T21:24:29.584Z,0.38
2023-03-26T21:27:12.835Z,0.28
2023-03-26T21:29:40.124Z,0.30
2023-03-26T21:32:07.276Z,0.40
2023-03-26T21:34:35.067Z,0.50
2023-03-26T21:37:02.704Z,0.32
2023-03-26T21:39:29.844Z,0.30
2023-03-26T21:42:04.496Z,0.50
2023-03-26T21:44:33.397Z,0.30
2023-03-26T21:47:00.551Z,0.38
2023-03-26T21:49:27.842Z,0.25
2023-03-26T21:51:54.848Z,0.40
2023-03-26T21:54:31.089Z,0.40
2023-03-26T21:57:05.886Z,0.40
2023-03-26T22:00:11.448Z,0.40
2023-03-26T22:02:49.038Z,0.50
2023-03-26T22:05:26.882Z,0.35
2023-03-26T22:08:00.854Z,0.40
2023-03-26T22:10:28.069Z,0.30
2023-03-26T22:12:54.784Z,0.40
2023-03-26T22:15:21.813Z,0.68
2023-03-26T22:17:54.158Z,0.30
2023-03-26T22:22:55.826Z,0.40
2023-03-26T22:25:23.496Z,0.40
2023-03-26T22:27:51.548Z,0.40
2023-03-26T22:30:20.544Z,0.45
2023-03-26T22:32:47.307Z,0.30
2023-03-26T22:35:14.676Z,0.40
2023-03-26T22:37:41.590Z,0.30
2023-03-26T22:40:09.091Z,0.30
2023-03-26T22:42:36.525Z,0.40
2023-03-26T22:45:04.057Z,0.45
2023-03-26T22:47:33.621Z,0.30
2023-03-26T22:50:00.798Z,0.30
2023-03-26T22:52:28.066Z,0.40
2023-03-26T22:54:55.122Z,0.50
2023-03-26T22:57:22.734Z,0.38
2023-03-26T22:59:49.503Z,0.40
2023-03-26T23:02:16.604Z,0.30
2023-03-26T23:04:44.175Z,0.30
2023-03-26T23:07:11.386Z,0.30
2023-03-26T23:09:38.188Z,0.25
2023-03-26T23:12:05.135Z,0.30
2023-03-26T23:14:32.349Z,0.30
2023-03-26T23:16:59.704Z,0.30
2023-03-26T23:19:26.417Z,0.25
2023-03-26T23:21:53.213Z,0.30
2023-03-26T23:24:19.888Z,0.50
2023-03-26T23:29:16.275Z,0.40
2023-03-26T23:31:43.046Z,0.40
2023-03-26T23:34:10.914Z,0.20
2023-03-26T23:36:37.635Z,0.30
2023-03-26T23:39:04.752Z,0.30
2023-03-26T23:41:31.552Z,0.30
2023-03-26T23:43:58.201Z,0.65
2023-03-26T23:46:33.013Z,0.22
2023-03-26T23:49:02.125Z,0.50
2023-03-26T23:51:30.192Z,0.30
2023-03-26T23:53:57.677Z,0.30
2023-03-26T23:56:24.389Z,0.40
2023-03-26T23:58:51.137Z,0.30
